sensor_id;sensor_type;location;lat;lon;timestamp;temperature;humidity
21039;DHT22;10678;51.002;4.786;2023-03-01T00:01:14;0.10;99.90
21039;DHT22;10678;51.002;4.786;2023-03-01T00:03:40;0.10;99.90
21039;DHT22;10678;51.002;4.786;2023-03-01T00:06:06;0.10;99.90
21039;DHT22;10678;51.002;4.786;2023-03-01T00:08:33;0.00;99.90
21039;DHT22;10678;51.002;4.786;2023-03-01T00:13:27;0.00;99.90
21039;DHT22;10678;51.002;4.786;2023-03-01T00:15:53;0.00;99.90
21039;DHT22;10678;51.002;4.786;2023-03-01T00:18:19;0.00;99.90
21039;DHT22;10678;51.002;4.786;2023-03-01T00:20:54;0.00;99.90
21039;DHT22;10678;51.002;4.786;2023-03-01T00:23:21;-0.10;99.90
21039;DHT22;10678;51.002;4.786;2023-03-01T00:25:47;-0.10;99.90
21039;DHT22;10678;51.002;4.786;2023-03-01T00:28:12;-0.10;99.90
21039;DHT22;10678;51.002;4.786;2023-03-01T00:30:38;-0.10;99.90
21039;DHT22;10678;51.002;4.786;2023-03-01T00:33:03;-0.10;99.90
21039;DHT22;10678;51.002;4.786;2023-03-01T00:35:29;-0.10;99.90
21039;DHT22;10678;51.002;4.786;2023-03-01T00:37:56;-0.20;99.90
21039;DHT22;10678;51.002;4.786;2023-03-01T00:40:24;-0.20;99.90
21039;DHT22;10678;51.002;4.786;2023-03-01T00:42:50;-0.10;99.90
21039;DHT22;10678;51.002;4.786;2023-03-01T00:45:16;-0.10;99.90
21039;DHT22;10678;51.002;4.786;2023-03-01T00:47:41;-0.10;99.90
21039;DHT22;10678;51.002;4.786;2023-03-01T00:50:07;0.00;99.90
21039;DHT22;10678;51.002;4.786;2023-03-01T00:52:33;0.00;99.90
21039;DHT22;10678;51.002;4.786;2023-03-01T00:54:59;0.00;99.90
21039;DHT22;10678;51.002;4.786;2023-03-01T00:57:24;-0.10;99.90
21039;DHT22;10678;51.002;4.786;2023-03-01T00:59:50;-0.10;99.90
21039;DHT22;10678;51.002;4.786;2023-03-01T01:02:18;-0.10;99.90
21039;DHT22;10678;51.002;4.786;2023-03-01T01:04:43;-0.10;99.90
21039;DHT22;10678;51.002;4.786;2023-03-01T01:07:09;-0.10;99.90
21039;DHT22;10678;51.002;4.786;2023-03-01T01:09:35;0.00;99.90
21039;DHT22;10678;51.002;4.786;2023-03-01T01:12:01;0.00;99.90
21039;DHT22;10678;51.002;4.786;2023-03-01T01:14:26;-0.10;99.90
21039;DHT22;10678;51.002;4.786;2023-03-01T01:16:52;-0.20;99.90
21039;DHT22;10678;51.002;4.786;2023-03-01T01:19:18;-0.20;99.90
21039;DHT22;10678;51.002;4.786;2023-03-01T01:21:44;-0.20;99.90
21039;DHT22;10678;51.002;4.786;2023-03-01T01:24:10;-0.20;99.90
21039;DHT22;10678;51.002;4.786;2023-03-01T01:26:37;-0.10;99.90
21039;DHT22;10678;51.002;4.786;2023-03-01T01:29:04;-0.20;99.90
21039;DHT22;10678;51.002;4.786;2023-03-01T01:31:31;-0.20;99.90
21039;DHT22;10678;51.002;4.786;2023-03-01T01:33:59;-0.10;99.90
21039;DHT22;10678;51.002;4.786;2023-03-01T01:36:25;0.00;99.90
21039;DHT22;10678;51.002;4.786;2023-03-01T01:38:51;-0.10;99.90
21039;DHT22;10678;51.002;4.786;2023-03-01T01:41:17;-0.10;99.90
21039;DHT22;10678;51.002;4.786;2023-03-01T01:43:46;-0.10;99.90
21039;DHT22;10678;51.002;4.786;2023-03-01T01:49:00;-0.10;99.90
21039;DHT22;10678;51.002;4.786;2023-03-01T01:51:35;-0.20;99.90
21039;DHT22;10678;51.002;4.786;2023-03-01T01:54:10;-0.30;99.90
21039;DHT22;10678;51.002;4.786;2023-03-01T01:56:39;-0.40;99.90
21039;DHT22;10678;51.002;4.786;2023-03-01T01:59:06;-0.50;99.90
21039;DHT22;10678;51.002;4.786;2023-03-01T02:01:32;-0.60;99.90
21039;DHT22;10678;51.002;4.786;2023-03-01T02:03:57;-0.60;99.90
21039;DHT22;10678;51.002;4.786;2023-03-01T02:06:49;-0.70;99.90
21039;DHT22;10678;51.002;4.786;2023-03-01T02:09:18;-0.70;99.90
21039;DHT22;10678;51.002;4.786;2023-03-01T02:11:45;-0.70;99.90
21039;DHT22;10678;51.002;4.786;2023-03-01T02:14:12;-0.70;99.90
21039;DHT22;10678;51.002;4.786;2023-03-01T02:16:38;-0.80;99.90
21039;DHT22;10678;51.002;4.786;2023-03-01T02:19:04;-0.80;99.90
21039;DHT22;10678;51.002;4.786;2023-03-01T02:24:40;-0.90;99.90
21039;DHT22;10678;51.002;4.786;2023-03-01T02:27:11;-1.00;99.90
21039;DHT22;10678;51.002;4.786;2023-03-01T02:29:38;-1.00;99.90
21039;DHT22;10678;51.002;4.786;2023-03-01T02:32:04;-0.80;99.90
21039;DHT22;10678;51.002;4.786;2023-03-01T02:34:31;-0.50;99.90
21039;DHT22;10678;51.002;4.786;2023-03-01T02:37:01;-0.60;99.90
21039;DHT22;10678;51.002;4.786;2023-03-01T02:39:48;-0.80;99.90
21039;DHT22;10678;51.002;4.786;2023-03-01T02:42:22;-0.80;99.90
21039;DHT22;10678;51.002;4.786;2023-03-01T02:44:49;-0.90;99.90
21039;DHT22;10678;51.002;4.786;2023-03-01T02:47:15;-0.90;99.90
21039;DHT22;10678;51.002;4.786;2023-03-01T02:49:41;-0.90;99.90
21039;DHT22;10678;51.002;4.786;2023-03-01T02:54:52;-1.00;99.90
21039;DHT22;10678;51.002;4.786;2023-03-01T02:57:22;-1.10;99.90
21039;DHT22;10678;51.002;4.786;2023-03-01T02:59:49;-1.10;99.90
21039;DHT22;10678;51.002;4.786;2023-03-01T03:02:24;-1.10;99.90
21039;DHT22;10678;51.002;4.786;2023-03-01T03:05:13;-1.10;99.90
21039;DHT22;10678;51.002;4.786;2023-03-01T03:07:41;-1.10;99.90
21039;DHT22;10678;51.002;4.786;2023-03-01T03:10:10;-1.10;99.90
21039;DHT22;10678;51.002;4.786;2023-03-01T03:12:37;-1.10;99.90
21039;DHT22;10678;51.002;4.786;2023-03-01T03:15:04;-1.00;99.90
21039;DHT22;10678;51.002;4.786;2023-03-01T03:17:37;-1.00;99.90
21039;DHT22;10678;51.002;4.786;2023-03-01T03:20:05;-1.00;99.90
21039;DHT22;10678;51.002;4.786;2023-03-01T03:22:31;-0.90;99.90
21039;DHT22;10678;51.002;4.786;2023-03-01T03:24:59;-1.00;99.90
21039;DHT22;10678;51.002;4.786;2023-03-01T03:27:25;-0.90;99.90
21039;DHT22;10678;51.002;4.786;2023-03-01T03:29:50;-1.00;99.90
21039;DHT22;10678;51.002;4.786;2023-03-01T03:32:16;-0.90;99.90
21039;DHT22;10678;51.002;4.786;2023-03-01T03:34:41;-0.90;99.90
21039;DHT22;10678;51.002;4.786;2023-03-01T03:37:07;-0.90;99.90
21039;DHT22;10678;51.002;4.786;2023-03-01T03:39:52;-0.90;99.90
21039;DHT22;10678;51.002;4.786;2023-03-01T03:42:20;-0.90;99.90
21039;DHT22;10678;51.002;4.786;2023-03-01T03:44:46;-1.00;99.90
21039;DHT22;10678;51.002;4.786;2023-03-01T03:47:12;-1.10;99.90
21039;DHT22;10678;51.002;4.786;2023-03-01T03:49:38;-1.10;99.90
21039;DHT22;10678;51.002;4.786;2023-03-01T03:52:03;-1.10;99.90
21039;DHT22;10678;51.002;4.786;2023-03-01T03:54:29;-1.10;99.90
21039;DHT22;10678;51.002;4.786;2023-03-01T03:56:54;-1.10;99.90
21039;DHT22;10678;51.002;4.786;2023-03-01T03:59:20;-1.20;99.90
21039;DHT22;10678;51.002;4.786;2023-03-01T04:01:45;-1.30;99.90
21039;DHT22;10678;51.002;4.786;2023-03-01T04:04:11;-1.30;99.90
21039;DHT22;10678;51.002;4.786;2023-03-01T04:06:37;-1.40;99.90
21039;DHT22;10678;51.002;4.786;2023-03-01T04:09:02;-1.50;99.90
21039;DHT22;10678;51.002;4.786;2023-03-01T04:11:28;-1.50;99.90
21039;DHT22;10678;51.002;4.786;2023-03-01T04:13:56;-1.50;99.90
21039;DHT22;10678;51.002;4.786;2023-03-01T04:16:22;-1.50;99.90
21039;DHT22;10678;51.002;4.786;2023-03-01T04:18:48;-1.50;99.90
21039;DHT22;10678;51.002;4.786;2023-03-01T04:21:14;-1.50;99.90
21039;DHT22;10678;51.002;4.786;2023-03-01T04:23:40;-1.50;99.90
21039;DHT22;10678;51.002;4.786;2023-03-01T04:26:07;-1.60;99.90
21039;DHT22;10678;51.002;4.786;2023-03-01T04:28:38;-1.60;99.90
21039;DHT22;10678;51.002;4.786;2023-03-01T04:31:13;-1.60;99.90
21039;DHT22;10678;51.002;4.786;2023-03-01T04:33:42;-1.70;99.90
21039;DHT22;10678;51.002;4.786;2023-03-01T04:36:10;-1.60;99.90
21039;DHT22;10678;51.002;4.786;2023-03-01T04:38:37;-1.70;99.90
21039;DHT22;10678;51.002;4.786;2023-03-01T04:41:07;-1.80;99.90
21039;DHT22;10678;51.002;4.786;2023-03-01T04:43:33;-1.80;99.90
21039;DHT22;10678;51.002;4.786;2023-03-01T04:46:07;-1.80;99.90
21039;DHT22;10678;51.002;4.786;2023-03-01T04:48:35;-1.90;99.90
21039;DHT22;10678;51.002;4.786;2023-03-01T04:51:01;-1.90;99.90
21039;DHT22;10678;51.002;4.786;2023-03-01T04:53:28;-1.90;99.90
21039;DHT22;10678;51.002;4.786;2023-03-01T04:55:55;-1.90;99.90
21039;DHT22;10678;51.002;4.786;2023-03-01T04:58:26;-1.90;99.90
21039;DHT22;10678;51.002;4.786;2023-03-01T05:00:52;-1.80;99.90
21039;DHT22;10678;51.002;4.786;2023-03-01T05:03:18;-1.80;99.90
21039;DHT22;10678;51.002;4.786;2023-03-01T05:05:46;-1.80;99.90
21039;DHT22;10678;51.002;4.786;2023-03-01T05:08:13;-1.80;99.90
21039;DHT22;10678;51.002;4.786;2023-03-01T05:10:49;-1.90;99.90
21039;DHT22;10678;51.002;4.786;2023-03-01T05:13:15;-1.80;99.90
21039;DHT22;10678;51.002;4.786;2023-03-01T05:15:56;-1.80;99.90
21039;DHT22;10678;51.002;4.786;2023-03-01T05:18:22;-1.90;99.90
21039;DHT22;10678;51.002;4.786;2023-03-01T05:20:51;-1.90;99.90
21039;DHT22;10678;51.002;4.786;2023-03-01T05:23:17;-1.90;99.90
21039;DHT22;10678;51.002;4.786;2023-03-01T05:25:44;-1.90;99.90
21039;DHT22;10678;51.002;4.786;2023-03-01T05:28:13;-1.90;99.90
21039;DHT22;10678;51.002;4.786;2023-03-01T05:30:39;-1.80;99.90
21039;DHT22;10678;51.002;4.786;2023-03-01T05:33:05;-1.80;99.90
21039;DHT22;10678;51.002;4.786;2023-03-01T05:35:35;-2.00;99.90
21039;DHT22;10678;51.002;4.786;2023-03-01T05:38:02;-2.10;99.90
21039;DHT22;10678;51.002;4.786;2023-03-01T05:40:27;-2.00;99.90
21039;DHT22;10678;51.002;4.786;2023-03-01T05:42:56;-2.00;99.90
21039;DHT22;10678;51.002;4.786;2023-03-01T05:45:23;-2.10;99.90
21039;DHT22;10678;51.002;4.786;2023-03-01T05:47:50;-2.10;99.90
21039;DHT22;10678;51.002;4.786;2023-03-01T05:50:24;-2.10;99.90
21039;DHT22;10678;51.002;4.786;2023-03-01T05:55:23;-2.20;99.90
21039;DHT22;10678;51.002;4.786;2023-03-01T05:57:49;-2.10;99.90
21039;DHT22;10678;51.002;4.786;2023-03-01T06:00:17;-2.20;99.90
21039;DHT22;10678;51.002;4.786;2023-03-01T06:02:43;-2.20;99.90
21039;DHT22;10678;51.002;4.786;2023-03-01T06:05:11;-2.10;99.90
21039;DHT22;10678;51.002;4.786;2023-03-01T06:07:37;-2.10;99.90
21039;DHT22;10678;51.002;4.786;2023-03-01T06:10:03;-2.20;99.90
21039;DHT22;10678;51.002;4.786;2023-03-01T06:12:36;-2.20;99.90
21039;DHT22;10678;51.002;4.786;2023-03-01T06:15:03;-2.20;99.90
21039;DHT22;10678;51.002;4.786;2023-03-01T06:17:31;-2.20;99.90
21039;DHT22;10678;51.002;4.786;2023-03-01T06:19:56;-2.30;99.90
21039;DHT22;10678;51.002;4.786;2023-03-01T06:22:22;-2.30;99.90
21039;DHT22;10678;51.002;4.786;2023-03-01T06:24:47;-2.30;99.90
21039;DHT22;10678;51.002;4.786;2023-03-01T06:27:13;-2.30;99.90
21039;DHT22;10678;51.002;4.786;2023-03-01T06:29:39;-2.20;99.90
21039;DHT22;10678;51.002;4.786;2023-03-01T06:32:04;-2.30;99.90
21039;DHT22;10678;51.002;4.786;2023-03-01T06:34:30;-2.30;99.90
21039;DHT22;10678;51.002;4.786;2023-03-01T06:36:56;-2.30;99.90
21039;DHT22;10678;51.002;4.786;2023-03-01T06:39:21;-2.40;99.90
21039;DHT22;10678;51.002;4.786;2023-03-01T06:41:47;-2.40;99.90
21039;DHT22;10678;51.002;4.786;2023-03-01T06:44:12;-2.30;99.90
21039;DHT22;10678;51.002;4.786;2023-03-01T06:46:39;-2.30;99.90
21039;DHT22;10678;51.002;4.786;2023-03-01T06:49:05;-2.30;99.90
21039;DHT22;10678;51.002;4.786;2023-03-01T06:51:35;-2.30;99.90
21039;DHT22;10678;51.002;4.786;2023-03-01T06:54:01;-2.20;99.90
21039;DHT22;10678;51.002;4.786;2023-03-01T06:56:27;-2.30;99.90
21039;DHT22;10678;51.002;4.786;2023-03-01T06:58:52;-2.20;99.90
21039;DHT22;10678;51.002;4.786;2023-03-01T07:01:18;-2.20;99.90
21039;DHT22;10678;51.002;4.786;2023-03-01T07:03:44;-2.10;99.90
21039;DHT22;10678;51.002;4.786;2023-03-01T07:06:09;-2.10;99.90
21039;DHT22;10678;51.002;4.786;2023-03-01T07:08:35;-2.00;99.90
21039;DHT22;10678;51.002;4.786;2023-03-01T07:11:01;-2.10;99.90
21039;DHT22;10678;51.002;4.786;2023-03-01T07:13:28;-2.00;99.90
21039;DHT22;10678;51.002;4.786;2023-03-01T07:15:54;-2.00;99.90
21039;DHT22;10678;51.002;4.786;2023-03-01T07:18:20;-1.80;99.90
21039;DHT22;10678;51.002;4.786;2023-03-01T07:20:45;-1.80;99.90
21039;DHT22;10678;51.002;4.786;2023-03-01T07:23:11;-1.80;99.90
21039;DHT22;10678;51.002;4.786;2023-03-01T07:25:36;-1.60;99.90
21039;DHT22;10678;51.002;4.786;2023-03-01T07:28:02;-1.60;99.90
21039;DHT22;10678;51.002;4.786;2023-03-01T07:30:28;-1.50;99.90
21039;DHT22;10678;51.002;4.786;2023-03-01T07:32:55;-1.50;99.90
21039;DHT22;10678;51.002;4.786;2023-03-01T07:35:22;-1.50;99.90
21039;DHT22;10678;51.002;4.786;2023-03-01T07:37:48;-1.40;99.90
21039;DHT22;10678;51.002;4.786;2023-03-01T07:40:14;-1.20;99.90
21039;DHT22;10678;51.002;4.786;2023-03-01T07:42:39;-1.20;99.90
21039;DHT22;10678;51.002;4.786;2023-03-01T07:45:06;-1.00;99.90
21039;DHT22;10678;51.002;4.786;2023-03-01T07:47:32;-0.80;99.90
21039;DHT22;10678;51.002;4.786;2023-03-01T07:49:57;-0.70;99.90
21039;DHT22;10678;51.002;4.786;2023-03-01T07:52:23;-0.60;99.90
21039;DHT22;10678;51.002;4.786;2023-03-01T07:54:49;-0.50;99.90
21039;DHT22;10678;51.002;4.786;2023-03-01T07:57:14;-0.40;99.90
21039;DHT22;10678;51.002;4.786;2023-03-01T07:59:40;-0.20;99.90
21039;DHT22;10678;51.002;4.786;2023-03-01T08:02:06;0.00;99.90
21039;DHT22;10678;51.002;4.786;2023-03-01T08:04:32;0.30;99.90
21039;DHT22;10678;51.002;4.786;2023-03-01T08:06:58;0.50;99.90
21039;DHT22;10678;51.002;4.786;2023-03-01T08:09:24;0.70;99.90
21039;DHT22;10678;51.002;4.786;2023-03-01T08:11:50;0.90;99.90
21039;DHT22;10678;51.002;4.786;2023-03-01T08:14:16;1.00;99.90
21039;DHT22;10678;51.002;4.786;2023-03-01T08:16:41;0.90;99.90
21039;DHT22;10678;51.002;4.786;2023-03-01T08:19:09;0.90;99.90
21039;DHT22;10678;51.002;4.786;2023-03-01T08:21:37;1.00;99.90
21039;DHT22;10678;51.002;4.786;2023-03-01T08:24:04;1.00;99.90
21039;DHT22;10678;51.002;4.786;2023-03-01T08:26:30;1.20;99.90
21039;DHT22;10678;51.002;4.786;2023-03-01T08:28:56;1.40;99.90
21039;DHT22;10678;51.002;4.786;2023-03-01T08:31:24;1.70;99.90
21039;DHT22;10678;51.002;4.786;2023-03-01T08:33:53;2.10;99.90
21039;DHT22;10678;51.002;4.786;2023-03-01T08:36:26;3.10;99.90
21039;DHT22;10678;51.002;4.786;2023-03-01T08:38:52;4.90;99.90
21039;DHT22;10678;51.002;4.786;2023-03-01T08:41:18;6.10;99.90
21039;DHT22;10678;51.002;4.786;2023-03-01T08:43:44;6.50;99.90
21039;DHT22;10678;51.002;4.786;2023-03-01T08:46:10;6.50;99.90
21039;DHT22;10678;51.002;4.786;2023-03-01T08:48:36;6.60;99.90
21039;DHT22;10678;51.002;4.786;2023-03-01T08:51:14;7.20;99.90
21039;DHT22;10678;51.002;4.786;2023-03-01T08:53:40;7.40;99.90
21039;DHT22;10678;51.002;4.786;2023-03-01T08:56:07;7.30;99.90
21039;DHT22;10678;51.002;4.786;2023-03-01T08:58:33;7.00;99.90
21039;DHT22;10678;51.002;4.786;2023-03-01T09:00:59;7.30;99.90
21039;DHT22;10678;51.002;4.786;2023-03-01T09:03:25;8.20;99.90
21039;DHT22;10678;51.002;4.786;2023-03-01T09:05:52;8.40;99.90
21039;DHT22;10678;51.002;4.786;2023-03-01T09:08:18;9.80;99.90
21039;DHT22;10678;51.002;4.786;2023-03-01T09:10:44;10.30;99.90
21039;DHT22;10678;51.002;4.786;2023-03-01T09:13:10;12.00;99.90
21039;DHT22;10678;51.002;4.786;2023-03-01T09:15:39;15.30;96.30
21039;DHT22;10678;51.002;4.786;2023-03-01T09:18:05;18.90;79.70
21039;DHT22;10678;51.002;4.786;2023-03-01T09:20:32;20.60;65.30
21039;DHT22;10678;51.002;4.786;2023-03-01T09:22:58;21.70;56.60
21039;DHT22;10678;51.002;4.786;2023-03-01T09:25:24;22.00;55.30
21039;DHT22;10678;51.002;4.786;2023-03-01T09:27:53;21.70;52.80
21039;DHT22;10678;51.002;4.786;2023-03-01T09:30:20;21.80;52.40
21039;DHT22;10678;51.002;4.786;2023-03-01T09:32:46;22.10;51.40
21039;DHT22;10678;51.002;4.786;2023-03-01T09:35:12;23.50;50.60
21039;DHT22;10678;51.002;4.786;2023-03-01T09:37:38;24.50;47.70
21039;DHT22;10678;51.002;4.786;2023-03-01T09:40:05;24.60;44.90
21039;DHT22;10678;51.002;4.786;2023-03-01T09:42:34;24.70;44.20
21039;DHT22;10678;51.002;4.786;2023-03-01T09:45:35;24.20;43.40
21039;DHT22;10678;51.002;4.786;2023-03-01T09:48:06;23.00;44.30
21039;DHT22;10678;51.002;4.786;2023-03-01T09:50:40;22.30;44.40
21039;DHT22;10678;51.002;4.786;2023-03-01T09:53:11;21.90;45.40
21039;DHT22;10678;51.002;4.786;2023-03-01T09:55:46;21.90;44.70
21039;DHT22;10678;51.002;4.786;2023-03-01T10:00:57;20.70;46.00
21039;DHT22;10678;51.002;4.786;2023-03-01T10:03:58;19.90;47.40
21039;DHT22;10678;51.002;4.786;2023-03-01T10:06:25;20.00;48.10
21039;DHT22;10678;51.002;4.786;2023-03-01T10:11:23;19.50;49.30
21039;DHT22;10678;51.002;4.786;2023-03-01T10:14:01;20.50;48.10
21039;DHT22;10678;51.002;4.786;2023-03-01T10:16:38;21.40;46.90
21039;DHT22;10678;51.002;4.786;2023-03-01T10:19:08;21.10;46.50
21039;DHT22;10678;51.002;4.786;2023-03-01T10:21:43;21.00;46.40
21039;DHT22;10678;51.002;4.786;2023-03-01T10:24:17;21.30;46.70
21039;DHT22;10678;51.002;4.786;2023-03-01T10:26:50;21.40;45.70
21039;DHT22;10678;51.002;4.786;2023-03-01T10:29:18;21.80;45.20
21039;DHT22;10678;51.002;4.786;2023-03-01T10:31:48;21.40;44.70
21039;DHT22;10678;51.002;4.786;2023-03-01T10:34:19;21.60;45.10
21039;DHT22;10678;51.002;4.786;2023-03-01T10:36:48;23.10;43.70
21039;DHT22;10678;51.002;4.786;2023-03-01T10:39:25;24.80;41.20
21039;DHT22;10678;51.002;4.786;2023-03-01T10:42:02;26.10;39.60
21039;DHT22;10678;51.002;4.786;2023-03-01T10:44:46;27.30;38.70
21039;DHT22;10678;51.002;4.786;2023-03-01T10:47:18;27.40;35.30
21039;DHT22;10678;51.002;4.786;2023-03-01T10:50:05;25.10;37.50
21039;DHT22;10678;51.002;4.786;2023-03-01T10:52:36;24.10;38.90
21039;DHT22;10678;51.002;4.786;2023-03-01T10:55:33;23.50;39.40
21039;DHT22;10678;51.002;4.786;2023-03-01T10:58:17;22.30;40.70
21039;DHT22;10678;51.002;4.786;2023-03-01T11:00:54;22.30;40.50
21039;DHT22;10678;51.002;4.786;2023-03-01T11:03:26;20.80;42.20
21039;DHT22;10678;51.002;4.786;2023-03-01T11:06:00;19.20;44.80
21039;DHT22;10678;51.002;4.786;2023-03-01T11:08:44;18.90;46.50
21039;DHT22;10678;51.002;4.786;2023-03-01T11:11:14;18.80;47.20
21039;DHT22;10678;51.002;4.786;2023-03-01T11:13:56;20.00;45.40
21039;DHT22;10678;51.002;4.786;2023-03-01T11:16:28;22.40;42.60
21039;DHT22;10678;51.002;4.786;2023-03-01T11:19:20;22.80;41.30
21039;DHT22;10678;51.002;4.786;2023-03-01T11:22:24;23.20;41.50
21039;DHT22;10678;51.002;4.786;2023-03-01T11:24:51;24.00;39.70
21039;DHT22;10678;51.002;4.786;2023-03-01T11:27:31;25.00;38.40
21039;DHT22;10678;51.002;4.786;2023-03-01T11:33:02;26.40;36.50
21039;DHT22;10678;51.002;4.786;2023-03-01T11:35:29;27.20;35.70
21039;DHT22;10678;51.002;4.786;2023-03-01T11:40:46;27.10;35.60
21039;DHT22;10678;51.002;4.786;2023-03-01T11:43:16;27.60;35.70
21039;DHT22;10678;51.002;4.786;2023-03-01T11:45:53;28.80;34.80
21039;DHT22;10678;51.002;4.786;2023-03-01T11:51:14;31.10;32.10
21039;DHT22;10678;51.002;4.786;2023-03-01T11:56:54;31.10;31.80
21039;DHT22;10678;51.002;4.786;2023-03-01T12:12:58;29.50;30.90
21039;DHT22;10678;51.002;4.786;2023-03-01T12:15:37;29.50;30.00
21039;DHT22;10678;51.002;4.786;2023-03-01T12:21:08;30.40;30.00
21039;DHT22;10678;51.002;4.786;2023-03-01T12:26:34;29.10;29.50
21039;DHT22;10678;51.002;4.786;2023-03-01T12:29:30;28.90;30.20
21039;DHT22;10678;51.002;4.786;2023-03-01T12:32:25;29.60;30.90
21039;DHT22;10678;51.002;4.786;2023-03-01T12:35:05;29.50;29.60
21039;DHT22;10678;51.002;4.786;2023-03-01T12:37:54;29.20;30.10
21039;DHT22;10678;51.002;4.786;2023-03-01T12:43:41;29.90;30.50
21039;DHT22;10678;51.002;4.786;2023-03-01T12:46:24;29.30;29.10
21039;DHT22;10678;51.002;4.786;2023-03-01T12:49:20;28.20;29.90
21039;DHT22;10678;51.002;4.786;2023-03-01T12:51:57;28.00;30.60
21039;DHT22;10678;51.002;4.786;2023-03-01T12:54:28;27.20;30.10
21039;DHT22;10678;51.002;4.786;2023-03-01T12:56:57;27.20;30.80
21039;DHT22;10678;51.002;4.786;2023-03-01T13:02:37;25.70;32.90
21039;DHT22;10678;51.002;4.786;2023-03-01T13:10:46;24.60;32.60
21039;DHT22;10678;51.002;4.786;2023-03-01T13:13:18;23.90;34.30
21039;DHT22;10678;51.002;4.786;2023-03-01T13:15:44;22.20;35.30
21039;DHT22;10678;51.002;4.786;2023-03-01T13:20:47;20.70;38.70
21039;DHT22;10678;51.002;4.786;2023-03-01T13:31:00;14.00;48.40
21039;DHT22;10678;51.002;4.786;2023-03-01T13:35:52;12.10;52.60
21039;DHT22;10678;51.002;4.786;2023-03-01T13:38:47;11.30;54.40
21039;DHT22;10678;51.002;4.786;2023-03-01T13:49:27;9.30;60.00
21039;DHT22;10678;51.002;4.786;2023-03-01T13:51:54;9.00;62.20
21039;DHT22;10678;51.002;4.786;2023-03-01T13:54:29;8.90;63.20
21039;DHT22;10678;51.002;4.786;2023-03-01T13:56:56;8.90;64.60
21039;DHT22;10678;51.002;4.786;2023-03-01T13:59:23;9.00;64.20
21039;DHT22;10678;51.002;4.786;2023-03-01T14:02:00;9.10;64.30
21039;DHT22;10678;51.002;4.786;2023-03-01T14:04:28;9.00;65.10
21039;DHT22;10678;51.002;4.786;2023-03-01T14:07:16;8.90;65.60
21039;DHT22;10678;51.002;4.786;2023-03-01T14:09:44;8.80;67.80
21039;DHT22;10678;51.002;4.786;2023-03-01T14:14:44;8.90;69.00
21039;DHT22;10678;51.002;4.786;2023-03-01T14:17:29;8.80;67.90
21039;DHT22;10678;51.002;4.786;2023-03-01T14:20:01;8.80;69.30
21039;DHT22;10678;51.002;4.786;2023-03-01T14:22:33;8.80;69.30
21039;DHT22;10678;51.002;4.786;2023-03-01T14:25:02;8.80;70.60
21039;DHT22;10678;51.002;4.786;2023-03-01T14:27:37;8.80;69.10
21039;DHT22;10678;51.002;4.786;2023-03-01T14:33:04;8.50;71.70
21039;DHT22;10678;51.002;4.786;2023-03-01T14:35:33;8.40;72.50
21039;DHT22;10678;51.002;4.786;2023-03-01T14:37:59;8.50;72.20
21039;DHT22;10678;51.002;4.786;2023-03-01T14:40:37;8.30;72.60
21039;DHT22;10678;51.002;4.786;2023-03-01T14:43:10;8.40;74.10
21039;DHT22;10678;51.002;4.786;2023-03-01T14:45:36;8.40;73.90
21039;DHT22;10678;51.002;4.786;2023-03-01T14:48:04;8.30;73.30
21039;DHT22;10678;51.002;4.786;2023-03-01T14:50:34;8.30;74.40
21039;DHT22;10678;51.002;4.786;2023-03-01T14:53:03;8.30;74.90
21039;DHT22;10678;51.002;4.786;2023-03-01T14:55:35;8.30;74.30
21039;DHT22;10678;51.002;4.786;2023-03-01T14:58:08;8.40;73.50
21039;DHT22;10678;51.002;4.786;2023-03-01T15:00:35;8.50;74.40
21039;DHT22;10678;51.002;4.786;2023-03-01T15:03:14;8.40;76.30
21039;DHT22;10678;51.002;4.786;2023-03-01T15:05:42;8.30;76.60
21039;DHT22;10678;51.002;4.786;2023-03-01T15:08:21;8.30;78.60
21039;DHT22;10678;51.002;4.786;2023-03-01T15:11:19;8.20;80.00
21039;DHT22;10678;51.002;4.786;2023-03-01T15:13:48;8.20;79.70
21039;DHT22;10678;51.002;4.786;2023-03-01T15:16:15;8.30;78.00
21039;DHT22;10678;51.002;4.786;2023-03-01T15:18:54;8.40;78.20
21039;DHT22;10678;51.002;4.786;2023-03-01T15:21:25;8.20;80.40
21039;DHT22;10678;51.002;4.786;2023-03-01T15:26:53;8.20;78.90
21039;DHT22;10678;51.002;4.786;2023-03-01T15:29:22;8.10;80.90
21039;DHT22;10678;51.002;4.786;2023-03-01T15:36:52;8.20;79.40
21039;DHT22;10678;51.002;4.786;2023-03-01T15:39:34;8.20;81.30
21039;DHT22;10678;51.002;4.786;2023-03-01T15:42:08;8.20;81.60
21039;DHT22;10678;51.002;4.786;2023-03-01T15:44:36;8.20;81.70
21039;DHT22;10678;51.002;4.786;2023-03-01T15:47:24;8.20;81.20
21039;DHT22;10678;51.002;4.786;2023-03-01T15:49:52;8.10;81.60
21039;DHT22;10678;51.002;4.786;2023-03-01T15:54:55;8.00;85.10
21039;DHT22;10678;51.002;4.786;2023-03-01T15:57:21;8.00;84.20
21039;DHT22;10678;51.002;4.786;2023-03-01T15:59:47;7.90;86.70
21039;DHT22;10678;51.002;4.786;2023-03-01T16:02:12;7.90;87.00
21039;DHT22;10678;51.002;4.786;2023-03-01T16:04:39;8.00;86.80
21039;DHT22;10678;51.002;4.786;2023-03-01T16:07:05;7.90;88.90
21039;DHT22;10678;51.002;4.786;2023-03-01T16:09:31;7.90;88.30
21039;DHT22;10678;51.002;4.786;2023-03-01T16:11:57;7.80;90.50
21039;DHT22;10678;51.002;4.786;2023-03-01T16:14:23;7.80;90.70
21039;DHT22;10678;51.002;4.786;2023-03-01T16:16:49;7.70;90.50
21039;DHT22;10678;51.002;4.786;2023-03-01T16:19:15;7.80;90.70
21039;DHT22;10678;51.002;4.786;2023-03-01T16:21:41;7.80;90.70
21039;DHT22;10678;51.002;4.786;2023-03-01T16:24:08;7.60;90.90
21039;DHT22;10678;51.002;4.786;2023-03-01T16:26:35;7.70;91.00
21039;DHT22;10678;51.002;4.786;2023-03-01T16:29:01;7.50;91.20
21039;DHT22;10678;51.002;4.786;2023-03-01T16:31:27;7.50;91.20
21039;DHT22;10678;51.002;4.786;2023-03-01T16:33:55;7.50;91.80
21039;DHT22;10678;51.002;4.786;2023-03-01T16:36:22;7.40;91.80
21039;DHT22;10678;51.002;4.786;2023-03-01T16:38:49;7.40;92.40
21039;DHT22;10678;51.002;4.786;2023-03-01T16:41:17;7.40;93.10
21039;DHT22;10678;51.002;4.786;2023-03-01T16:43:43;7.30;92.50
21039;DHT22;10678;51.002;4.786;2023-03-01T16:46:13;7.20;92.60
21039;DHT22;10678;51.002;4.786;2023-03-01T16:48:38;7.20;93.40
21039;DHT22;10678;51.002;4.786;2023-03-01T16:51:05;7.10;93.60
21039;DHT22;10678;51.002;4.786;2023-03-01T16:53:33;7.10;93.60
21039;DHT22;10678;51.002;4.786;2023-03-01T16:55:59;7.00;94.10
21039;DHT22;10678;51.002;4.786;2023-03-01T16:58:25;7.00;94.00
21039;DHT22;10678;51.002;4.786;2023-03-01T17:00:55;6.80;94.30
21039;DHT22;10678;51.002;4.786;2023-03-01T17:03:24;6.80;94.50
21039;DHT22;10678;51.002;4.786;2023-03-01T17:05:50;6.60;95.40
21039;DHT22;10678;51.002;4.786;2023-03-01T17:08:16;6.40;96.20
21039;DHT22;10678;51.002;4.786;2023-03-01T17:10:42;6.40;96.90
21039;DHT22;10678;51.002;4.786;2023-03-01T17:13:09;6.40;97.20
21039;DHT22;10678;51.002;4.786;2023-03-01T17:15:38;6.30;97.30
21039;DHT22;10678;51.002;4.786;2023-03-01T17:18:04;6.20;98.50
21039;DHT22;10678;51.002;4.786;2023-03-01T17:20:30;6.10;97.90
21039;DHT22;10678;51.002;4.786;2023-03-01T17:22:55;6.00;98.60
21039;DHT22;10678;51.002;4.786;2023-03-01T17:25:21;6.00;98.80
21039;DHT22;10678;51.002;4.786;2023-03-01T17:27:46;6.00;99.20